Time;durP1;ratioP1;P1;durP2;ratioP2;P2;SDS_P1;SDS_P2;PMS_P1;PMS_P2;Temp;Humidity;BMP_temperature;BMP_pressure;BME280_temperature;BME280_humidity;BME280_pressure;Samples;Min_cycle;Max_cycle;Signal;HPM_P1;HPM_P2
2023/08/17 00:02:15;;;;;;;2.70;1.40;;;20.00;99.90;;;;;;4994306;28;20042;-72
2023/08/17 00:04:41;;;;;;;4.18;1.80;;;20.00;99.90;;;;;;5002976;28;20029;-73
2023/08/17 00:07:07;;;;;;;1.95;0.82;;;20.10;99.90;;;;;;5012267;28;20041;-72
2023/08/17 00:09:33;;;;;;;1.25;0.73;;;20.20;99.90;;;;;;5012778;28;20030;-72
2023/08/17 00:11:59;;;;;;;1.85;0.80;;;20.30;99.90;;;;;;4986761;28;20047;-73
2023/08/17 00:14:25;;;;;;;1.25;0.63;;;20.30;99.90;;;;;;5002406;28;20056;-73
2023/08/17 00:16:51;;;;;;;2.58;0.63;;;20.30;99.90;;;;;;4994688;28;20080;-72
2023/08/17 00:19:17;;;;;;;2.58;0.70;;;20.20;99.90;;;;;;4992042;28;20046;-72
2023/08/17 00:21:45;;;;;;;2.00;0.88;;;20.30;99.90;;;;;;5000249;28;20110;-72
2023/08/17 00:24:11;;;;;;;1.00;0.50;;;20.20;99.90;;;;;;4993908;28;20022;-72
2023/08/17 00:26:37;;;;;;;1.20;0.77;;;20.10;99.90;;;;;;5007302;28;20375;-73
2023/08/17 00:29:03;;;;;;;0.47;0.47;;;20.10;99.90;;;;;;5012377;28;20120;-72
2023/08/17 00:49:53;;;;;;;1.73;0.88;;;20.00;99.90;;;;;;5008508;28;20080;-72
2023/08/17 00:52:19;;;;;;;1.88;0.90;;;20.00;99.90;;;;;;4993281;28;20037;-72
2023/08/17 00:54:45;;;;;;;3.67;1.15;;;19.90;99.90;;;;;;5011669;28;20376;-72
2023/08/17 00:57:11;;;;;;;1.05;0.75;;;19.90;99.90;;;;;;5011369;28;20379;-72
2023/08/17 00:59:37;;;;;;;1.45;0.70;;;19.90;99.90;;;;;;5002286;28;20029;-72
2023/08/17 01:02:03;;;;;;;2.53;0.90;;;19.90;99.90;;;;;;4977464;28;20049;-72
2023/08/17 01:04:29;;;;;;;4.22;0.98;;;19.90;99.90;;;;;;5008797;28;20059;-72
2023/08/17 01:06:54;;;;;;;2.45;0.85;;;19.90;99.90;;;;;;4999234;28;20065;-71
2023/08/17 01:09:20;;;;;;;2.72;0.98;;;19.80;99.90;;;;;;5014718;22;20053;-68
2023/08/17 01:37:34;;;;;;;1.65;0.90;;;19.70;99.90;;;;;;4974710;28;20066;-68
2023/08/17 01:40:00;;;;;;;1.60;0.90;;;19.70;99.90;;;;;;4974049;28;20035;-68
2023/08/17 01:42:26;;;;;;;2.58;0.82;;;19.70;99.90;;;;;;5006804;28;20564;-67
2023/08/17 01:44:52;;;;;;;4.13;0.98;;;19.70;99.90;;;;;;4989748;28;20045;-68
2023/08/17 01:47:24;;;;;;;2.03;0.90;;;19.70;99.90;;;;;;4989582;28;20061;-68
2023/08/17 01:49:50;;;;;;;1.15;0.80;;;19.70;99.90;;;;;;4990882;28;20022;-68
2023/08/17 01:52:17;;;;;;;2.42;1.08;;;19.60;99.90;;;;;;4988989;28;20145;-68
2023/08/17 01:54:43;;;;;;;2.03;0.70;;;19.60;99.90;;;;;;4990901;28;20105;-68
2023/08/17 01:57:08;;;;;;;1.02;0.70;;;19.50;99.90;;;;;;4990643;28;20030;-68
2023/08/17 01:59:34;;;;;;;3.45;0.80;;;19.60;99.90;;;;;;4990704;28;20034;-67
2023/08/17 02:02:00;;;;;;;1.65;0.80;;;19.70;99.90;;;;;;4991300;28;20041;-68
2023/08/17 02:04:25;;;;;;;1.48;1.00;;;19.70;99.90;;;;;;4989840;28;20093;-68
2023/08/17 02:06:51;;;;;;;1.42;0.63;;;19.70;99.90;;;;;;4989610;28;20046;-68
2023/08/17 02:09:17;;;;;;;2.85;0.93;;;19.60;99.90;;;;;;4983597;28;20037;-68
2023/08/17 02:11:43;;;;;;;1.30;0.80;;;19.60;99.90;;;;;;4990800;28;20026;-68
2023/08/17 02:14:08;;;;;;;2.78;0.90;;;19.60;99.90;;;;;;4990076;28;20050;-68
2023/08/17 02:16:34;;;;;;;3.10;0.82;;;19.60;99.90;;;;;;4996756;28;20023;-68
2023/08/17 02:19:00;;;;;;;3.15;1.13;;;19.60;99.90;;;;;;4990396;28;20026;-68
2023/08/17 02:21:25;;;;;;;1.85;0.77;;;19.70;99.90;;;;;;4990623;28;20095;-68
2023/08/17 02:23:51;;;;;;;6.60;0.90;;;19.60;99.90;;;;;;4989543;28;20295;-68
2023/08/17 02:26:17;;;;;;;1.38;0.80;;;19.60;99.90;;;;;;4991060;28;20406;-68
2023/08/17 02:28:43;;;;;;;0.85;0.70;;;19.60;99.90;;;;;;4990010;28;20042;-68
2023/08/17 02:31:08;;;;;;;1.27;0.80;;;19.60;99.90;;;;;;4990733;28;20038;-68
2023/08/17 02:33:36;;;;;;;3.53;0.80;;;19.60;99.90;;;;;;4989452;28;20114;-68
2023/08/17 02:36:02;;;;;;;1.48;0.88;;;19.70;99.90;;;;;;4990916;28;20026;-68
2023/08/17 02:38:28;;;;;;;2.33;1.23;;;19.60;99.90;;;;;;4988890;28;20845;-68
2023/08/17 02:40:54;;;;;;;2.30;1.15;;;19.60;99.90;;;;;;4989651;28;20042;-69
2023/08/17 02:43:19;;;;;;;1.48;0.88;;;19.60;99.90;;;;;;4989340;28;20034;-68
2023/08/17 02:45:45;;;;;;;2.05;0.73;;;19.50;99.90;;;;;;4990740;28;20049;-69
2023/08/17 02:48:11;;;;;;;5.40;1.20;;;19.50;99.90;;;;;;4988778;28;20538;-68
2023/08/17 02:50:36;;;;;;;5.05;1.38;;;19.40;99.90;;;;;;4990692;28;20542;-68
2023/08/17 02:53:02;;;;;;;1.67;0.98;;;19.40;99.90;;;;;;4989920;28;20053;-68
2023/08/17 02:55:28;;;;;;;2.65;1.35;;;19.40;99.90;;;;;;4992493;28;20072;-68
2023/08/17 02:57:54;;;;;;;2.95;1.65;;;19.50;99.90;;;;;;4993579;28;20512;-68
2023/08/17 03:00:19;;;;;;;3.35;1.30;;;19.50;99.90;;;;;;4992731;28;20045;-68
2023/08/17 03:02:45;;;;;;;5.22;1.48;;;19.50;99.90;;;;;;4989115;28;20537;-68
2023/08/17 03:05:11;;;;;;;5.35;1.52;;;19.40;99.90;;;;;;5008880;28;20832;-68
2023/08/17 03:07:37;;;;;;;3.35;1.70;;;19.30;99.90;;;;;;5001174;28;20120;-68
2023/08/17 03:10:03;;;;;;;2.72;1.63;;;19.30;99.90;;;;;;4993530;28;20038;-68
2023/08/17 03:12:28;;;;;;;3.78;1.77;;;19.30;99.90;;;;;;5006829;28;20064;-69
2023/08/17 03:14:54;;;;;;;8.45;2.22;;;19.20;99.90;;;;;;5000202;28;20518;-68
2023/08/17 03:17:20;;;;;;;5.35;2.13;;;19.30;99.90;;;;;;5002269;28;20096;-68
2023/08/17 03:19:46;;;;;;;4.28;1.75;;;19.20;99.90;;;;;;4999002;28;20108;-68
2023/08/17 03:22:11;;;;;;;5.22;1.95;;;19.20;99.90;;;;;;4993726;28;20042;-69
2023/08/17 03:24:37;;;;;;;3.80;2.03;;;19.20;99.90;;;;;;4993123;28;20376;-68
2023/08/17 03:27:03;;;;;;;4.20;2.15;;;19.20;99.90;;;;;;4993321;28;20038;-68
2023/08/17 03:29:29;;;;;;;5.07;2.28;;;19.20;99.90;;;;;;5008263;28;20061;-68
2023/08/17 03:31:55;;;;;;;5.40;2.50;;;19.20;99.90;;;;;;4993292;28;20072;-68
2023/08/17 03:34:21;;;;;;;5.18;2.05;;;19.10;99.90;;;;;;4992116;28;20062;-68
2023/08/17 03:36:46;;;;;;;4.47;1.95;;;19.10;99.90;;;;;;4999880;28;20030;-68
2023/08/17 03:39:12;;;;;;;3.30;1.63;;;19.10;99.90;;;;;;4996042;28;20485;-68
2023/08/17 03:41:38;;;;;;;2.72;1.27;;;19.00;99.90;;;;;;5009455;28;20030;-68
2023/08/17 03:44:05;;;;;;;10.30;2.80;;;19.10;99.90;;;;;;4993552;28;20077;-68
2023/08/17 03:46:31;;;;;;;5.47;1.90;;;19.10;99.90;;;;;;4993480;28;20034;-68
2023/08/17 03:48:57;;;;;;;7.60;2.63;;;19.10;99.90;;;;;;5007211;28;20042;-68
2023/08/17 03:51:23;;;;;;;9.05;2.95;;;19.10;99.90;;;;;;4993034;28;20118;-68
2023/08/17 03:53:49;;;;;;;5.63;2.60;;;19.00;99.90;;;;;;4991671;28;20038;-68
2023/08/17 03:56:14;;;;;;;6.00;2.70;;;19.10;99.90;;;;;;4997324;28;20113;-68
2023/08/17 03:58:42;;;;;;;7.47;3.22;;;19.10;99.90;;;;;;4997675;28;20442;-68
2023/08/17 04:01:08;;;;;;;9.25;3.58;;;19.10;99.90;;;;;;4992764;28;20030;-68
2023/08/17 04:03:33;;;;;;;7.00;3.30;;;19.20;99.90;;;;;;4991507;28;20077;-68
2023/08/17 04:06:06;;;;;;;23.63;8.45;;;19.40;99.90;;;;;;4992708;28;20105;-69
2023/08/17 04:08:32;;;;;;;4.93;2.28;;;19.50;99.90;;;;;;4992337;28;20112;-68
2023/08/17 04:10:57;;;;;;;9.35;3.88;;;19.50;99.90;;;;;;4999270;28;20053;-68
2023/08/17 04:13:23;;;;;;;6.68;2.88;;;19.40;99.90;;;;;;5000529;28;20052;-68
2023/08/17 04:15:49;;;;;;;6.20;2.40;;;19.40;99.90;;;;;;4997496;28;20376;-68
2023/08/17 04:18:14;;;;;;;10.75;3.70;;;19.50;99.90;;;;;;4992273;28;20043;-68
2023/08/17 04:20:40;;;;;;;9.48;3.58;;;19.40;99.90;;;;;;4992486;28;20162;-68
2023/08/17 04:23:06;;;;;;;9.38;2.78;;;19.20;99.90;;;;;;4991455;28;20061;-68
2023/08/17 04:25:31;;;;;;;13.75;3.53;;;19.20;99.90;;;;;;4992035;28;20644;-69
2023/08/17 04:27:57;;;;;;;6.80;2.88;;;19.20;99.90;;;;;;4991974;28;20108;-68
2023/08/17 04:30:23;;;;;;;11.88;3.40;;;19.20;99.90;;;;;;4990930;28;20044;-69
2023/08/17 04:32:52;;;;;;;10.27;4.78;;;19.10;99.90;;;;;;4991418;28;20485;-68
2023/08/17 04:35:21;;;;;;;4.93;3.05;;;19.00;99.90;;;;;;4992008;28;20022;-69
2023/08/17 04:37:47;;;;;;;12.48;3.63;;;19.00;99.90;;;;;;4991875;28;20029;-68
2023/08/17 04:40:13;;;;;;;10.77;4.03;;;19.00;99.90;;;;;;4992201;28;20026;-67
2023/08/17 04:42:39;;;;;;;8.30;3.30;;;19.10;99.90;;;;;;4991267;28;20062;-68
2023/08/17 04:45:06;;;;;;;11.90;4.18;;;19.30;99.90;;;;;;4992173;28;20026;-69
2023/08/17 04:47:32;;;;;;;8.85;3.33;;;19.20;99.90;;;;;;4991546;28;20026;-68
2023/08/17 04:49:58;;;;;;;13.55;3.70;;;19.20;99.90;;;;;;4988172;28;20049;-68
2023/08/17 04:52:23;;;;;;;10.75;3.65;;;19.10;99.90;;;;;;4981174;28;20056;-68
2023/08/17 04:54:49;;;;;;;19.75;3.80;;;19.10;99.90;;;;;;4984537;28;20027;-68
2023/08/17 04:57:15;;;;;;;10.10;3.25;;;19.20;99.90;;;;;;4982785;28;20049;-68
2023/08/17 04:59:41;;;;;;;10.73;3.95;;;19.30;99.90;;;;;;4984424;28;20031;-68
2023/08/17 05:02:06;;;;;;;7.18;2.60;;;19.20;99.90;;;;;;4983208;28;20113;-68
2023/08/17 05:04:32;;;;;;;12.95;3.72;;;19.20;99.90;;;;;;5005280;28;20093;-56
2023/08/17 05:06:58;;;;;;;11.38;2.88;;;19.00;99.90;;;;;;4988012;28;20053;-55
2023/08/17 05:09:24;;;;;;;7.65;2.63;;;18.70;99.90;;;;;;4988721;28;20509;-52
2023/08/17 05:11:49;;;;;;;11.75;3.03;;;18.90;99.90;;;;;;4997927;28;20080;-57
2023/08/17 05:14:15;;;;;;;16.02;3.97;;;19.00;99.90;;;;;;4988137;28;20030;-55
2023/08/17 05:16:41;;;;;;;11.65;3.72;;;19.10;99.90;;;;;;4984995;28;20061;-57
2023/08/17 05:19:06;;;;;;;13.02;3.30;;;19.10;99.90;;;;;;4988950;28;20038;-55
2023/08/17 05:21:34;;;;;;;16.63;3.80;;;19.20;99.90;;;;;;4989738;28;20495;-56
2023/08/17 05:24:00;;;;;;;19.02;3.17;;;19.20;99.90;;;;;;4988918;28;20034;-57
2023/08/17 05:26:26;;;;;;;16.30;4.45;;;19.10;99.90;;;;;;4989833;28;20037;-56
2023/08/17 05:28:51;;;;;;;12.23;4.10;;;19.30;99.90;;;;;;4989190;28;20037;-57
2023/08/17 05:31:17;;;;;;;10.15;3.65;;;19.40;99.90;;;;;;4982116;28;20042;-56
2023/08/17 05:33:43;;;;;;;9.75;3.30;;;19.40;99.90;;;;;;4995205;28;20101;-57
2023/08/17 05:36:09;;;;;;;8.65;3.22;;;19.50;99.90;;;;;;4986836;28;20041;-57
2023/08/17 05:38:34;;;;;;;9.70;3.63;;;19.50;99.90;;;;;;4989550;28;20034;-56
2023/08/17 05:41:01;;;;;;;11.25;3.40;;;19.50;99.90;;;;;;4987906;28;20061;-55
2023/08/17 05:43:27;;;;;;;8.77;3.25;;;19.50;99.90;;;;;;4983879;28;20109;-55
2023/08/17 05:45:53;;;;;;;16.73;3.92;;;19.40;99.90;;;;;;4979739;28;20614;-55
2023/08/17 05:48:22;;;;;;;14.15;4.55;;;19.50;99.90;;;;;;4982988;28;20042;-51
2023/08/17 05:50:48;;;;;;;17.00;4.95;;;19.60;99.90;;;;;;4983197;28;20034;-52
2023/08/17 05:53:13;;;;;;;13.70;4.20;;;19.80;99.90;;;;;;4988123;28;20084;-53
2023/08/17 05:55:39;;;;;;;14.85;4.00;;;19.80;99.90;;;;;;5000063;28;20038;-54
2023/08/17 05:58:05;;;;;;;14.32;4.82;;;19.80;99.90;;;;;;4984583;28;20030;-56
2023/08/17 06:00:31;;;;;;;14.75;5.00;;;19.90;99.90;;;;;;4988186;28;20030;-55
2023/08/17 06:03:01;;;;;;;14.15;4.68;;;19.90;99.90;;;;;;4996609;28;20520;-56
2023/08/17 06:05:28;;;;;;;13.48;4.80;;;19.80;99.90;;;;;;4991070;28;20044;-56
2023/08/17 06:07:57;;;;;;;11.38;4.65;;;19.80;99.90;;;;;;4979764;28;20043;-55
2023/08/17 06:10:25;;;;;;;15.10;4.95;;;19.90;99.90;;;;;;4991725;28;20046;-52
2023/08/17 06:12:55;;;;;;;9.88;4.65;;;19.80;99.90;;;;;;4981867;28;20033;-54
2023/08/17 06:15:21;;;;;;;11.68;4.40;;;20.00;99.90;;;;;;4984502;28;20121;-55
2023/08/17 06:17:49;;;;;;;15.27;4.60;;;20.10;99.90;;;;;;4986785;28;20113;-56
2023/08/17 06:20:16;;;;;;;16.35;4.70;;;20.00;99.90;;;;;;4989686;28;20026;-55
2023/08/17 06:22:42;;;;;;;9.18;3.42;;;20.10;99.90;;;;;;4987845;28;20045;-57
2023/08/17 06:25:08;;;;;;;14.20;4.00;;;20.10;99.90;;;;;;4989173;28;20030;-54
2023/08/17 06:27:35;;;;;;;11.55;3.75;;;20.30;99.90;;;;;;4990727;28;20030;-56
2023/08/17 06:30:06;;;;;;;6.45;2.70;;;20.40;99.90;;;;;;4991038;28;20037;-57
2023/08/17 06:32:32;;;;;;;;;;;20.40;99.90;;;;;;4992266;28;20093;-54
2023/08/17 06:34:58;;;;;;;7.53;3.00;;;20.10;99.90;;;;;;4993348;28;19914;-50
2023/08/17 06:37:24;;;;;;;9.27;3.88;;;20.20;99.90;;;;;;4995053;28;20402;-50
2023/08/17 06:39:50;;;;;;;7.28;3.35;;;20.20;99.90;;;;;;4994658;28;20460;-52
2023/08/17 06:42:15;;;;;;;16.23;3.67;;;20.40;99.90;;;;;;4993421;28;20034;-55
2023/08/17 06:44:41;;;;;;;9.27;4.00;;;20.90;99.90;;;;;;4992712;28;20776;-57
2023/08/17 06:47:07;;;;;;;6.20;2.80;;;20.90;99.90;;;;;;4993662;28;20113;-56
2023/08/17 06:49:33;;;;;;;8.27;2.88;;;20.90;99.90;;;;;;4994418;28;20034;-55
2023/08/17 06:51:58;;;;;;;7.43;2.53;;;21.00;99.90;;;;;;4993290;28;20140;-53
2023/08/17 06:54:24;;;;;;;8.18;3.15;;;21.00;99.90;;;;;;4993389;28;20030;-55
2023/08/17 06:56:50;;;;;;;9.50;3.10;;;20.90;99.90;;;;;;4993767;28;20029;-52
2023/08/17 06:59:15;;;;;;;12.55;3.22;;;20.90;99.90;;;;;;4994029;28;20030;-54
2023/08/17 07:01:41;;;;;;;6.32;2.63;;;20.80;99.90;;;;;;4993667;28;20034;-48
2023/08/17 07:04:07;;;;;;;8.13;3.40;;;20.90;99.90;;;;;;4993199;28;20042;-47
2023/08/17 07:06:33;;;;;;;8.35;3.65;;;20.80;99.90;;;;;;4998303;28;20096;-50
2023/08/17 07:08:59;;;;;;;7.40;3.10;;;20.90;99.90;;;;;;5014878;23;20018;-55
2023/08/17 07:11:25;;;;;;;10.27;3.78;;;20.60;99.90;;;;;;5009981;28;20201;-52
2023/08/17 07:13:50;;;;;;;7.93;3.65;;;20.70;99.90;;;;;;5008170;28;20037;-55
2023/08/17 07:16:17;;;;;;;10.18;3.40;;;20.80;99.90;;;;;;5005554;28;20088;-52
2023/08/17 07:18:43;;;;;;;7.30;3.53;;;20.80;99.90;;;;;;5040927;28;20030;-49
2023/08/17 07:21:08;;;;;;;9.27;3.40;;;20.80;99.90;;;;;;5000076;28;20524;-48
2023/08/17 07:23:34;;;;;;;4.97;2.13;;;20.80;99.90;;;;;;4997420;28;20065;-49
2023/08/17 07:26:00;;;;;;;6.47;3.42;;;20.90;99.90;;;;;;4987205;28;20027;-49
2023/08/17 07:28:26;;;;;;;8.98;3.05;;;20.90;99.90;;;;;;4998109;28;20058;-46
2023/08/17 07:30:51;;;;;;;9.43;2.78;;;21.00;99.90;;;;;;5000414;28;20053;-52
2023/08/17 07:33:17;;;;;;;7.50;2.63;;;21.10;99.90;;;;;;4988789;28;20031;-52
2023/08/17 07:35:43;;;;;;;6.78;2.78;;;20.80;99.90;;;;;;4991647;28;20036;-69
2023/08/17 07:38:09;;;;;;;5.53;2.63;;;21.20;99.90;;;;;;4992021;28;20053;-69
2023/08/17 07:40:34;;;;;;;8.13;3.10;;;21.30;99.90;;;;;;4990560;28;20461;-70
2023/08/17 07:43:01;;;;;;;8.38;2.60;;;21.50;99.90;;;;;;4991863;28;20062;-70
2023/08/17 07:45:27;;;;;;;9.80;2.65;;;21.40;99.90;;;;;;4992152;28;20514;-70
2023/08/17 07:47:53;;;;;;;7.30;2.53;;;21.60;99.90;;;;;;4993170;28;20073;-69
2023/08/17 07:50:19;;;;;;;5.40;2.78;;;21.60;99.90;;;;;;4992705;28;20034;-69
2023/08/17 07:52:45;;;;;;;7.15;2.83;;;21.70;99.90;;;;;;4990966;28;20372;-70
2023/08/17 07:55:11;;;;;;;5.50;2.30;;;21.80;99.90;;;;;;4991745;28;20018;-69
2023/08/17 07:57:37;;;;;;;13.35;5.45;;;21.60;99.90;;;;;;4992547;28;20030;-69
2023/08/17 08:00:03;;;;;;;6.18;3.08;;;21.60;99.90;;;;;;4993234;28;20041;-69
2023/08/17 08:02:29;;;;;;;10.50;2.80;;;22.10;99.90;;;;;;4991436;28;20566;-70
2023/08/17 08:04:55;;;;;;;7.40;3.50;;;22.00;99.90;;;;;;4992924;28;20038;-69
2023/08/17 08:07:20;;;;;;;6.47;2.50;;;22.00;99.90;;;;;;4995392;28;20045;-69
2023/08/17 08:09:46;;;;;;;5.45;2.92;;;22.20;99.90;;;;;;4991413;28;20042;-69
2023/08/17 08:12:12;;;;;;;4.15;2.58;;;22.20;99.90;;;;;;4992122;28;20046;-69
2023/08/17 08:14:38;;;;;;;5.78;2.17;;;22.10;99.90;;;;;;4992047;28;20423;-69
2023/08/17 08:17:03;;;;;;;7.55;3.08;;;22.00;99.90;;;;;;4992116;28;20173;-69
2023/08/17 08:19:29;;;;;;;4.70;2.65;;;22.00;99.90;;;;;;4991337;28;20076;-69
2023/08/17 08:21:55;;;;;;;5.15;2.80;;;22.10;99.90;;;;;;4992076;28;20037;-69
2023/08/17 08:24:20;;;;;;;5.13;2.30;;;22.20;99.90;;;;;;4990223;28;20086;-69
2023/08/17 08:26:46;;;;;;;6.07;3.17;;;22.40;99.90;;;;;;4991874;28;20030;-69
2023/08/17 08:29:12;;;;;;;6.63;2.67;;;22.20;99.90;;;;;;4992430;28;20053;-69
2023/08/17 08:31:38;;;;;;;5.22;2.65;;;22.00;99.90;;;;;;4992010;28;20533;-69
2023/08/17 08:34:03;;;;;;;5.90;2.70;;;22.30;99.90;;;;;;4991310;28;20489;-69
2023/08/17 08:36:29;;;;;;;6.90;2.25;;;22.50;99.90;;;;;;5001059;28;20497;-69
2023/08/17 08:38:55;;;;;;;4.75;2.70;;;22.50;99.90;;;;;;4992654;28;20077;-70
2023/08/17 08:41:22;;;;;;;4.88;2.30;;;22.50;99.90;;;;;;4992203;28;20057;-69
2023/08/17 08:43:47;;;;;;;6.07;2.15;;;22.50;99.90;;;;;;4989701;28;20070;-69
2023/08/17 08:46:17;;;;;;;6.15;2.80;;;22.80;99.90;;;;;;4992238;28;20061;-70
2023/08/17 08:48:45;;;;;;;5.25;2.28;;;23.00;99.90;;;;;;4990257;28;20076;-70
2023/08/17 08:51:16;;;;;;;6.40;2.80;;;23.40;99.90;;;;;;5006161;28;20105;-69
2023/08/17 08:53:45;;;;;;;8.27;2.30;;;23.40;99.90;;;;;;4989305;28;20061;-69
2023/08/17 08:56:12;;;;;;;3.90;1.83;;;23.20;99.90;;;;;;5006841;28;20386;-69
2023/08/17 08:58:41;;;;;;;6.78;2.35;;;23.00;99.90;;;;;;4990067;28;20038;-69
2023/08/17 09:01:10;;;;;;;4.45;2.63;;;23.10;99.90;;;;;;5006796;28;20508;-70
2023/08/17 09:03:36;;;;;;;3.53;2.10;;;23.00;99.90;;;;;;4988933;28;20030;-69
2023/08/17 09:06:03;;;;;;;4.55;2.00;;;23.20;99.90;;;;;;5011972;28;20022;-69
2023/08/17 09:08:30;;;;;;;6.05;2.78;;;23.30;99.90;;;;;;4994127;28;20128;-70
2023/08/17 09:10:57;;;;;;;5.88;2.72;;;23.20;99.90;;;;;;5006229;28;20044;-69
2023/08/17 09:13:23;;;;;;;4.03;2.60;;;23.30;99.90;;;;;;4994436;28;20038;-69
2023/08/17 09:15:48;;;;;;;6.03;2.28;;;23.40;99.90;;;;;;4994605;28;20038;-69
2023/08/17 09:18:16;;;;;;;6.20;2.72;;;23.30;99.90;;;;;;4988998;28;20058;-70
2023/08/17 09:20:44;;;;;;;4.65;2.55;;;23.20;99.90;;;;;;4990983;28;20042;-69
2023/08/17 09:23:16;;;;;;;8.25;2.95;;;23.20;99.90;;;;;;4990603;28;20402;-72
2023/08/17 09:25:44;;;;;;;7.38;2.40;;;23.20;99.90;;;;;;5006545;28;20092;-73
2023/08/17 09:28:16;;;;;;;8.90;4.07;;;23.00;99.90;;;;;;4989075;28;20037;-72
2023/08/17 09:30:58;;;;;;;4.13;2.10;;;23.20;99.90;;;;;;4991562;28;20038;-67
2023/08/17 09:33:31;;;;;;;4.22;2.28;;;23.20;99.90;;;;;;4989754;28;20081;-68
2023/08/17 09:35:58;;;;;;;4.55;2.55;;;23.30;99.90;;;;;;5010464;28;20026;-69
2023/08/17 09:38:25;;;;;;;4.60;2.10;;;23.50;99.90;;;;;;4995510;28;20034;-83
2023/08/17 09:40:51;;;;;;;5.10;2.33;;;23.60;99.90;;;;;;5006337;28;20475;-71
2023/08/17 09:43:18;;;;;;;8.40;2.85;;;23.50;99.90;;;;;;4989650;28;20077;-74
2023/08/17 09:45:49;;;;;;;4.22;2.25;;;23.50;99.90;;;;;;5006261;28;20143;-72
2023/08/17 09:48:19;;;;;;;7.15;2.67;;;23.60;99.90;;;;;;4990719;28;20066;-71
2023/08/17 09:50:47;;;;;;;6.05;2.45;;;23.80;99.90;;;;;;4991176;28;20069;-71
2023/08/17 09:53:18;;;;;;;4.22;2.17;;;23.80;99.90;;;;;;4988562;28;20046;-68
2023/08/17 09:55:47;;;;;;;3.75;2.05;;;23.90;99.90;;;;;;4999467;28;20121;-68
2023/08/17 09:58:17;;;;;;;5.97;2.53;;;23.80;99.90;;;;;;4994080;28;20487;-71
2023/08/17 10:00:49;;;;;;;2.97;1.60;;;23.70;99.90;;;;;;5005453;28;20123;-68
2023/08/17 10:03:16;;;;;;;3.08;2.20;;;24.00;99.90;;;;;;4987080;28;20421;-70
2023/08/17 10:05:46;;;;;;;3.75;1.52;;;24.30;99.90;;;;;;4994361;28;20038;-71
2023/08/17 10:08:15;;;;;;;5.55;2.92;;;24.30;99.90;;;;;;4996733;28;20042;-70
2023/08/17 10:10:45;;;;;;;4.68;2.20;;;24.40;99.90;;;;;;4990479;28;20104;-72
2023/08/17 10:13:20;;;;;;;3.83;1.65;;;24.50;99.90;;;;;;4978728;28;20064;-71
2023/08/17 10:16:09;;;;;;;5.07;2.33;;;24.60;99.90;;;;;;5004803;28;20029;-72
2023/08/17 10:18:59;;;;;;;3.08;1.92;;;24.90;99.90;;;;;;4984395;28;20058;-70
2023/08/17 10:21:37;;;;;;;3.97;2.00;;;25.10;99.90;;;;;;5003798;28;20045;-70
2023/08/17 10:24:04;;;;;;;4.28;2.63;;;25.20;99.90;;;;;;5003761;28;20038;-69
2023/08/17 10:26:31;;;;;;;4.45;1.95;;;25.40;99.90;;;;;;4986872;28;20050;-68
2023/08/17 10:28:59;;;;;;;4.80;1.73;;;25.40;99.90;;;;;;4986656;28;20026;-69
2023/08/17 10:31:26;;;;;;;2.92;1.92;;;25.40;99.90;;;;;;4988665;28;20092;-71
2023/08/17 10:33:52;;;;;;;3.38;1.92;;;25.50;99.90;;;;;;4986691;28;22452;-72
2023/08/17 10:36:19;;;;;;;3.75;2.08;;;25.70;99.90;;;;;;4992728;28;20494;-71
2023/08/17 10:38:45;;;;;;;2.88;1.75;;;25.40;99.90;;;;;;5004304;28;20057;-73
2023/08/17 10:41:13;;;;;;;3.17;1.67;;;25.60;99.90;;;;;;4990338;28;20034;-71
2023/08/17 10:43:59;;;;;;;3.33;1.85;;;25.70;99.90;;;;;;5003417;28;20077;-71
2023/08/17 10:46:37;;;;;;;4.28;1.83;;;25.80;99.90;;;;;;4989466;28;20027;-69
2023/08/17 10:49:24;;;;;;;2.50;1.60;;;26.00;99.90;;;;;;4989921;28;20117;-70
2023/08/17 10:52:27;;;;;;;2.95;1.80;;;26.10;99.90;;;;;;4988985;28;20081;-69
2023/08/17 10:54:54;;;;;;;4.72;1.83;;;25.90;99.90;;;;;;4966761;28;20550;-68
2023/08/17 10:57:33;;;;;;;3.30;1.60;;;25.90;99.90;;;;;;5005438;28;20116;-69
2023/08/17 11:00:31;;;;;;;2.88;1.63;;;26.20;99.90;;;;;;4981984;28;20042;-68
2023/08/17 11:03:01;;;;;;;3.13;1.90;;;26.40;99.90;;;;;;4985774;28;20046;-71
2023/08/17 11:05:49;;;;;;;4.32;1.80;;;26.50;99.90;;;;;;4990005;28;20034;-70
2023/08/17 11:08:40;;;;;;;3.30;1.60;;;26.50;99.90;;;;;;4990608;28;20042;-70
2023/08/17 11:11:09;;;;;;;4.68;1.73;;;26.70;99.90;;;;;;4988155;28;20030;-70
2023/08/17 11:13:38;;;;;;;2.65;1.85;;;26.80;99.90;;;;;;4988479;28;20038;-70
2023/08/17 11:16:05;;;;;;;4.82;2.22;;;26.90;99.90;;;;;;4989104;28;20089;-71
2023/08/17 11:18:32;;;;;;;3.58;1.90;;;26.90;99.90;;;;;;4992248;28;20030;-69
2023/08/17 11:20:59;;;;;;;4.15;1.60;;;26.60;99.90;;;;;;5007991;28;20042;-69
2023/08/17 11:23:28;;;;;;;2.70;1.55;;;26.90;99.90;;;;;;5007143;28;20038;-70
2023/08/17 11:25:54;;;;;;;3.17;1.73;;;27.20;99.90;;;;;;5005899;28;20657;-71
2023/08/17 11:28:22;;;;;;;2.83;1.60;;;27.50;99.90;;;;;;5007115;28;20121;-70
2023/08/17 11:31:01;;;;;;;2.30;1.40;;;27.70;99.90;;;;;;4989802;28;20034;-69
2023/08/17 11:33:29;;;;;;;2.47;1.70;;;27.90;99.90;;;;;;5004834;28;20076;-71
2023/08/17 11:35:59;;;;;;;2.33;1.35;;;28.10;99.90;;;;;;4995229;28;20065;-71
2023/08/17 11:38:29;;;;;;;1.63;1.13;;;28.40;99.90;;;;;;5006002;28;20084;-71
2023/08/17 11:40:57;;;;;;;1.80;1.13;;;28.40;99.90;;;;;;4991636;28;20073;-71
2023/08/17 11:43:23;;;;;;;4.45;1.90;;;27.70;99.90;;;;;;4991382;28;20037;-70
2023/08/17 11:45:49;;;;;;;4.50;1.83;;;28.40;99.90;;;;;;4989996;28;20030;-71
2023/08/17 11:48:16;;;;;;;2.10;1.30;;;28.70;99.90;;;;;;4991564;28;20109;-70
2023/08/17 11:50:42;;;;;;;2.72;1.55;;;28.80;99.90;;;;;;5007624;28;20487;-70
2023/08/17 11:53:08;;;;;;;3.10;1.20;;;29.00;99.90;;;;;;4991528;28;20844;-71
2023/08/17 11:55:34;;;;;;;1.92;1.08;;;29.20;99.90;;;;;;4992824;28;20165;-71
2023/08/17 11:58:03;;;;;;;2.75;1.52;;;29.20;99.90;;;;;;4992316;28;20118;-71
2023/08/17 12:00:38;;;;;;;4.70;1.77;;;29.60;99.90;;;;;;5007798;28;20026;-71
2023/08/17 12:03:04;;;;;;;1.73;1.23;;;29.20;99.90;;;;;;4990166;28;20087;-71
2023/08/17 12:05:32;;;;;;;2.33;1.48;;;29.30;99.90;;;;;;5008488;28;20544;-70
2023/08/17 12:08:02;;;;;;;5.82;2.00;;;29.10;99.90;;;;;;5003127;28;20037;-71
2023/08/17 12:10:31;;;;;;;;;;;29.00;99.90;;;;;;4995809;28;20854;-71
2023/08/17 12:13:01;;;;;;;2.58;1.33;;;28.90;99.90;;;;;;4992443;28;20004;-71
2023/08/17 12:15:35;;;;;;;1.95;0.98;;;29.00;99.90;;;;;;5007153;28;20132;-70
2023/08/17 12:18:04;;;;;;;1.55;1.00;;;29.00;99.90;;;;;;5007358;28;20046;-69
2023/08/17 12:20:32;;;;;;;3.63;1.60;;;28.80;99.90;;;;;;4992775;28;20041;-71
2023/08/17 12:22:59;;;;;;;2.17;1.27;;;28.50;99.90;;;;;;4989323;28;20030;-71
2023/08/17 12:25:26;;;;;;;5.47;1.90;;;28.30;99.90;;;;;;4991404;28;20128;-71
2023/08/17 12:27:51;;;;;;;4.55;1.60;;;28.00;99.90;;;;;;4990143;28;20096;-71
2023/08/17 12:30:32;;;;;;;6.15;2.08;;;27.90;99.90;;;;;;4991825;28;20038;-72
2023/08/17 12:32:58;;;;;;;7.22;2.47;;;27.80;99.90;;;;;;4988165;28;20131;-71
2023/08/17 12:35:25;;;;;;;7.88;2.42;;;27.80;99.90;;;;;;4991802;28;20089;-69
2023/08/17 12:37:54;;;;;;;5.65;2.58;;;27.80;99.90;;;;;;4994073;28;20097;-70
2023/08/17 12:40:22;;;;;;;6.78;2.05;;;28.00;99.90;;;;;;5008780;28;20026;-71
2023/08/17 12:42:48;;;;;;;6.13;2.08;;;28.10;99.90;;;;;;4972062;28;20030;-71
2023/08/17 12:45:15;;;;;;;5.78;2.13;;;28.30;99.90;;;;;;4990640;28;20046;-71
2023/08/17 12:47:41;;;;;;;7.68;2.33;;;28.50;99.90;;;;;;4990377;28;20058;-71
2023/08/17 12:50:07;;;;;;;4.88;1.88;;;28.60;99.90;;;;;;4991996;28;20034;-71
2023/08/17 12:52:33;;;;;;;3.67;1.70;;;28.80;99.90;;;;;;4985394;28;20448;-71
2023/08/17 12:54:59;;;;;;;6.38;1.75;;;28.90;99.90;;;;;;4988916;28;20042;-70
2023/08/17 12:57:24;;;;;;;2.30;1.60;;;28.80;99.90;;;;;;4990476;28;20054;-71
2023/08/17 12:59:50;;;;;;;3.58;1.77;;;29.10;99.90;;;;;;4991703;28;20030;-71
2023/08/17 13:02:16;;;;;;;2.97;1.67;;;29.30;99.90;;;;;;4990571;28;20027;-71
2023/08/17 13:04:42;;;;;;;2.60;1.48;;;28.90;99.90;;;;;;4991090;28;20034;-70
2023/08/17 13:07:07;;;;;;;4.72;2.35;;;28.40;99.90;;;;;;4989898;28;20455;-70
2023/08/17 13:09:33;;;;;;;2.58;1.40;;;28.20;99.90;;;;;;4991494;28;20057;-71
2023/08/17 13:11:59;;;;;;;2.88;1.70;;;28.20;99.90;;;;;;4989638;28;20093;-70
2023/08/17 13:14:25;;;;;;;7.05;1.75;;;28.10;99.90;;;;;;5016008;22;20073;-72
2023/08/17 13:16:51;;;;;;;2.55;1.67;;;28.00;99.90;;;;;;5010164;28;20060;-72
2023/08/17 13:19:18;;;;;;;2.80;1.45;;;28.10;99.90;;;;;;5008995;28;20058;-72
2023/08/17 13:21:44;;;;;;;2.85;1.65;;;27.80;99.90;;;;;;5010527;28;20109;-71
2023/08/17 13:24:10;;;;;;;2.35;1.50;;;27.80;99.90;;;;;;5009304;28;20029;-72
2023/08/17 13:26:36;;;;;;;1.67;1.25;;;27.80;99.90;;;;;;5010793;28;20080;-71
2023/08/17 13:29:02;;;;;;;2.33;1.40;;;27.70;99.90;;;;;;5014362;28;20029;-71
2023/08/17 13:31:29;;;;;;;1.77;1.13;;;27.60;99.90;;;;;;5010476;28;20091;-71